ELY5131 LLBG-LCLK
Flight info
| Callsign | ELY5131 |
|---|---|
| Flight time | N/A |
| Altitude | 32000 |
| Route | SUVAS DCT STEPA DCT APLON M32 PHA |
| Aircraft | B739/M-SDE2E3FGHIRWXY/LB1 |
Departure
| Time | 2026-05-04 16:12 |
|---|---|
| Airport | Ben Gurion International Airport (LLBG) |
Arrival
| Time | N/A |
|---|---|
| Airport | Larnaca International Airport (LCLK) |
| Time | Latitude | Longitude | Altitude | Speed | Heading |
|---|---|---|---|---|---|
| 2026-05-04 15:44 | 32.00244 | 34.88149 | 119 ft | 0 kts | 301° |
| 2026-05-04 16:03 | 32.00243 | 34.88151 | 119 ft | 2 kts | 301° |
| 2026-05-04 16:03 | 32.00235 | 34.88168 | 114 ft | 2 kts | 301° |
| 2026-05-04 16:03 | 32.00226 | 34.88184 | 115 ft | 2 kts | 301° |
| 2026-05-04 16:03 | 32.00218 | 34.88200 | 114 ft | 2 kts | 301° |
| 2026-05-04 16:04 | 32.00210 | 34.88217 | 114 ft | 2 kts | 301° |
| 2026-05-04 16:04 | 32.00183 | 34.88233 | 114 ft | 2 kts | 26° |
| 2026-05-04 16:04 | 32.00177 | 34.88229 | 116 ft | 0 kts | 33° |
| 2026-05-04 16:06 | 32.00184 | 34.88235 | 114 ft | 2 kts | 33° |
| 2026-05-04 16:07 | 32.00281 | 34.88271 | 116 ft | 17 kts | 335° |
| 2026-05-04 16:07 | 32.00461 | 34.87944 | 116 ft | 14 kts | 302° |
| 2026-05-04 16:08 | 32.00531 | 34.87883 | 117 ft | 14 kts | 17° |
| 2026-05-04 16:08 | 32.00792 | 34.88066 | 119 ft | 20 kts | 32° |
| 2026-05-04 16:09 | 32.01020 | 34.88233 | 118 ft | 19 kts | 33° |
| 2026-05-04 16:09 | 32.01233 | 34.88385 | 120 ft | 17 kts | 30° |
| 2026-05-04 16:10 | 32.01431 | 34.88638 | 119 ft | 23 kts | 58° |
| 2026-05-04 16:11 | 32.01564 | 34.89150 | 117 ft | 21 kts | 32° |
| 2026-05-04 16:11 | 32.01701 | 34.89139 | 117 ft | 10 kts | 348° |
| 2026-05-04 16:12 | 32.01620 | 34.88268 | 120 ft | 122 kts | 259° |
| 2026-05-04 16:12 | 32.00971 | 34.84218 | 2045 ft | 177 kts | 258° |
| 2026-05-04 16:13 | 32.00421 | 34.81614 | 3706 ft | 155 kts | 258° |
| 2026-05-04 16:13 | 31.99874 | 34.79030 | 4667 ft | 173 kts | 257° |
| 2026-05-04 16:14 | 31.99262 | 34.76140 | 5523 ft | 190 kts | 257° |
| 2026-05-04 16:14 | 31.99697 | 34.72983 | 6379 ft | 208 kts | 287° |
| 2026-05-04 16:15 | 32.01306 | 34.67917 | 7522 ft | 237 kts | 287° |
| 2026-05-04 16:16 | 32.02499 | 34.64078 | 8346 ft | 256 kts | 284° |
| 2026-05-04 16:16 | 32.04392 | 34.59117 | 9458 ft | 274 kts | 321° |
| 2026-05-04 16:17 | 32.08094 | 34.57486 | 10308 ft | 297 kts | 338° |
| 2026-05-04 16:18 | 32.14495 | 34.55515 | 11538 ft | 335 kts | 338° |
| 2026-05-04 16:18 | 32.16792 | 34.54803 | 11963 ft | 346 kts | 338° |
| 2026-05-04 16:19 | 32.23942 | 34.52559 | 13202 ft | 357 kts | 338° |
| 2026-05-04 16:19 | 32.28726 | 34.51043 | 14020 ft | 357 kts | 338° |
| 2026-05-04 16:20 | 32.36053 | 34.48691 | 15181 ft | 368 kts | 337° |
| 2026-05-04 16:20 | 32.41008 | 34.47100 | 15973 ft | 370 kts | 336° |
| 2026-05-04 16:21 | 32.48478 | 34.44697 | 17204 ft | 372 kts | 335° |
| 2026-05-04 16:22 | 32.53492 | 34.43080 | 18056 ft | 377 kts | 335° |
| 2026-05-04 16:22 | 32.61209 | 34.40579 | 19220 ft | 389 kts | 335° |
| 2026-05-04 16:23 | 32.69097 | 34.38032 | 20384 ft | 393 kts | 334° |
| 2026-05-04 16:24 | 32.79458 | 34.34671 | 21967 ft | 405 kts | 334° |
| 2026-05-04 16:25 | 32.84892 | 34.32904 | 22815 ft | 410 kts | 334° |
| 2026-05-04 16:26 | 32.96032 | 34.29282 | 24417 ft | 419 kts | 334° |
| 2026-05-04 16:26 | 33.04519 | 34.26516 | 25562 ft | 423 kts | 334° |
| 2026-05-04 16:27 | 33.10206 | 34.24659 | 26347 ft | 425 kts | 334° |
| 2026-05-04 16:28 | 33.18769 | 34.21859 | 27567 ft | 426 kts | 333° |
| 2026-05-04 16:28 | 33.27299 | 34.19064 | 28843 ft | 425 kts | 333° |
| 2026-05-04 16:29 | 33.38428 | 34.15400 | 29964 ft | 431 kts | 333° |
| 2026-05-04 16:31 | 33.52755 | 34.10687 | 29963 ft | 424 kts | 333° |
| 2026-05-04 16:32 | 33.70057 | 34.04930 | 29958 ft | 451 kts | 333° |
| 2026-05-04 16:33 | 33.76220 | 34.02877 | 29958 ft | 467 kts | 334° |
| 2026-05-04 16:33 | 33.82572 | 34.00771 | 29950 ft | 476 kts | 334° |
| 2026-05-04 16:34 | 33.92112 | 33.97607 | 29613 ft | 473 kts | 334° |
| 2026-05-04 16:35 | 34.01299 | 33.94563 | 28524 ft | 443 kts | 334° |
| 2026-05-04 16:35 | 34.10123 | 33.91601 | 27499 ft | 436 kts | 335° |
| 2026-05-04 16:36 | 34.13002 | 33.90632 | 27162 ft | 434 kts | 335° |
| 2026-05-04 16:36 | 34.18803 | 33.88683 | 26508 ft | 431 kts | 335° |
| 2026-05-04 16:37 | 34.24571 | 33.86747 | 25850 ft | 428 kts | 336° |
| 2026-05-04 16:37 | 34.27441 | 33.85782 | 25541 ft | 427 kts | 336° |
| 2026-05-04 16:37 | 34.33148 | 33.83863 | 24916 ft | 424 kts | 336° |
| 2026-05-04 16:38 | 34.38810 | 33.81956 | 24297 ft | 420 kts | 336° |
| 2026-05-04 16:39 | 34.47180 | 33.79132 | 23390 ft | 415 kts | 337° |
| 2026-05-04 16:39 | 34.52719 | 33.77259 | 22682 ft | 411 kts | 336° |
| 2026-05-04 16:40 | 34.58197 | 33.75404 | 21980 ft | 407 kts | 336° |
| 2026-05-04 16:40 | 34.63812 | 33.74368 | 21269 ft | 424 kts | 2° |
| 2026-05-04 16:41 | 34.69587 | 33.76063 | 20650 ft | 427 kts | 9° |
| 2026-05-04 16:41 | 34.78143 | 33.78754 | 19693 ft | 422 kts | 8° |
| 2026-05-04 16:42 | 34.86666 | 33.81315 | 18760 ft | 418 kts | 8° |
| 2026-05-04 16:43 | 34.92299 | 33.83008 | 18147 ft | 415 kts | 7° |